createdAt,value
2023-03-16T00:01:05.796Z,2.20
2023-03-16T00:06:03.175Z,1.98
2023-03-16T00:08:31.058Z,2.55
2023-03-16T00:10:59.051Z,2.13
2023-03-16T00:13:27.580Z,2.47
2023-03-16T00:15:57.344Z,2.23
2023-03-16T00:18:27.388Z,2.50
2023-03-16T00:20:58.201Z,2.28
2023-03-16T00:23:28.149Z,2.10
2023-03-16T00:25:56.589Z,2.40
2023-03-16T00:28:24.573Z,2.20
2023-03-16T00:30:52.959Z,2.78
2023-03-16T00:33:20.853Z,2.90
2023-03-16T00:35:50.225Z,2.20
2023-03-16T00:38:21.804Z,2.25
2023-03-16T00:40:51.309Z,2.42
2023-03-16T00:43:19.261Z,2.10
2023-03-16T00:45:47.233Z,2.33
2023-03-16T00:48:15.226Z,2.47
2023-03-16T00:50:43.651Z,2.15
2023-03-16T00:53:11.943Z,2.23
2023-03-16T00:55:41.583Z,2.00
2023-03-16T00:58:09.652Z,2.30
2023-03-16T01:00:40.276Z,2.38
2023-03-16T01:03:08.484Z,1.90
2023-03-16T01:05:41.213Z,2.55
2023-03-16T01:08:09.073Z,2.40
2023-03-16T01:10:37.098Z,2.50
2023-03-16T01:13:07.522Z,2.25
2023-03-16T01:15:35.885Z,2.38
2023-03-16T01:18:03.755Z,2.03
2023-03-16T01:20:33.535Z,2.00
2023-03-16T01:23:02.350Z,1.92
2023-03-16T01:25:30.291Z,2.67
2023-03-16T01:27:58.198Z,2.53
2023-03-16T01:30:28.500Z,2.55
2023-03-16T01:32:56.758Z,2.10
2023-03-16T01:35:24.907Z,2.20
2023-03-16T01:37:52.862Z,2.13
2023-03-16T01:40:25.005Z,1.85
2023-03-16T01:43:02.747Z,2.00
2023-03-16T01:46:22.257Z,2.10
2023-03-16T01:51:38.800Z,1.90
2023-03-16T01:54:14.542Z,2.30
2023-03-16T01:56:46.693Z,2.03
2023-03-16T01:59:18.354Z,2.00
2023-03-16T02:01:48.652Z,1.83
2023-03-16T02:04:40.063Z,2.38
2023-03-16T02:07:09.940Z,1.90
2023-03-16T02:09:40.257Z,1.75
2023-03-16T02:12:17.836Z,2.28
2023-03-16T02:14:51.222Z,1.98
2023-03-16T02:17:21.900Z,1.88
2023-03-16T02:20:08.894Z,1.48
2023-03-16T02:22:42.186Z,1.70
2023-03-16T02:25:10.424Z,2.60
2023-03-16T02:27:44.108Z,2.10
2023-03-16T02:30:15.396Z,2.03
2023-03-16T02:33:05.034Z,1.50
2023-03-16T02:35:33.359Z,1.85
2023-03-16T02:40:36.465Z,2.05
2023-03-16T02:43:10.785Z,2.40
2023-03-16T02:45:51.176Z,2.05
2023-03-16T02:48:23.881Z,2.03
2023-03-16T02:50:54.613Z,2.40
2023-03-16T02:53:23.301Z,2.00
2023-03-16T02:55:51.720Z,2.03
2023-03-16T02:58:20.482Z,2.45
2023-03-16T03:00:49.741Z,2.38
2023-03-16T03:03:18.907Z,2.70
2023-03-16T03:05:47.237Z,2.22
2023-03-16T03:08:15.630Z,3.22
2023-03-16T03:10:44.210Z,2.63
2023-03-16T03:13:12.313Z,2.20
2023-03-16T03:15:41.161Z,2.70
2023-03-16T03:18:14.551Z,2.42
2023-03-16T03:20:42.824Z,2.65
2023-03-16T03:23:11.774Z,2.80
2023-03-16T03:25:42.470Z,2.50
2023-03-16T03:28:10.385Z,2.47
2023-03-16T03:30:38.514Z,2.30
2023-03-16T03:33:06.731Z,2.38
2023-03-16T03:35:36.088Z,2.38
2023-03-16T03:38:04.307Z,2.13
2023-03-16T03:40:32.314Z,2.20
2023-03-16T03:43:03.722Z,2.80
2023-03-16T03:45:34.408Z,1.90
2023-03-16T03:48:02.653Z,2.85
2023-03-16T03:50:30.632Z,2.60
2023-03-16T03:53:20.877Z,2.50
2023-03-16T03:56:08.070Z,2.60
2023-03-16T03:58:36.363Z,2.72
2023-03-16T04:01:04.204Z,2.05
2023-03-16T04:03:33.953Z,2.55
2023-03-16T04:06:02.041Z,2.25
2023-03-16T04:08:32.489Z,2.47
2023-03-16T04:11:00.908Z,2.22
2023-03-16T04:13:28.973Z,2.10
2023-03-16T04:15:58.522Z,2.30
2023-03-16T04:18:29.865Z,2.08
2023-03-16T04:20:57.747Z,2.40
2023-03-16T04:23:27.013Z,2.10
2023-03-16T04:25:57.482Z,2.63
2023-03-16T04:28:26.789Z,2.50
2023-03-16T04:33:29.219Z,2.10
2023-03-16T04:35:57.765Z,2.20
2023-03-16T04:38:26.383Z,2.22
2023-03-16T04:41:02.723Z,2.33
2023-03-16T04:43:37.040Z,2.88
2023-03-16T04:46:12.153Z,2.10
2023-03-16T04:48:40.524Z,2.47
2023-03-16T04:51:09.804Z,2.03
2023-03-16T04:53:42.095Z,2.65
2023-03-16T04:56:24.938Z,2.08
2023-03-16T04:58:58.250Z,2.10
2023-03-16T05:01:30.129Z,1.80
2023-03-16T05:04:02.461Z,2.00
2023-03-16T05:06:33.015Z,2.05
2023-03-16T05:09:04.939Z,2.30
2023-03-16T05:11:37.734Z,1.92
2023-03-16T05:14:08.912Z,2.08
2023-03-16T05:16:48.659Z,2.00
2023-03-16T05:19:16.963Z,2.25
2023-03-16T05:21:45.713Z,2.42
2023-03-16T05:24:13.902Z,2.38
2023-03-16T05:26:43.384Z,2.15
2023-03-16T05:29:13.994Z,2.05
2023-03-16T05:31:42.071Z,2.28
2023-03-16T05:34:15.932Z,3.00
2023-03-16T05:36:45.168Z,2.00
2023-03-16T05:39:16.401Z,2.08
2023-03-16T05:41:49.618Z,2.20
2023-03-16T05:44:36.433Z,2.13
2023-03-16T05:47:13.914Z,2.22
2023-03-16T05:49:46.408Z,2.20
2023-03-16T05:52:25.400Z,2.67
2023-03-16T05:54:54.273Z,2.17
2023-03-16T05:57:23.790Z,2.42
2023-03-16T05:59:53.260Z,2.33
2023-03-16T06:02:23.243Z,2.53
2023-03-16T06:04:51.571Z,2.35
2023-03-16T06:07:19.777Z,2.65
2023-03-16T06:09:48.214Z,2.33
2023-03-16T06:12:17.654Z,2.40
2023-03-16T06:14:47.371Z,2.10
2023-03-16T06:17:15.966Z,2.00
2023-03-16T06:19:44.245Z,2.90
2023-03-16T06:22:13.041Z,2.30
2023-03-16T06:24:41.310Z,2.15
2023-03-16T06:27:09.359Z,2.20
2023-03-16T06:29:50.745Z,2.05
2023-03-16T06:32:18.942Z,2.15
2023-03-16T06:34:46.863Z,1.80
2023-03-16T06:37:14.877Z,1.80
2023-03-16T06:39:42.847Z,1.95
2023-03-16T06:42:12.092Z,2.38
2023-03-16T06:44:40.249Z,1.60
2023-03-16T06:47:12.257Z,1.77
2023-03-16T06:52:15.865Z,1.88
2023-03-16T06:54:43.976Z,1.63
2023-03-16T06:57:12.714Z,1.52
2023-03-16T06:59:41.301Z,1.95
2023-03-16T07:02:13.798Z,2.28
2023-03-16T07:04:42.090Z,2.20
2023-03-16T07:07:11.694Z,1.85
2023-03-16T07:09:41.795Z,1.73
2023-03-16T07:12:10.831Z,1.80
2023-03-16T07:14:39.051Z,1.75
2023-03-16T07:17:08.531Z,2.28
2023-03-16T07:19:38.161Z,1.70
2023-03-16T07:22:06.135Z,1.90
2023-03-16T07:24:38.347Z,1.60
2023-03-16T07:27:06.374Z,2.10
2023-03-16T07:29:35.226Z,1.65
2023-03-16T07:32:05.357Z,1.65
2023-03-16T07:34:39.896Z,1.63
2023-03-16T07:37:08.955Z,1.95
2023-03-16T07:39:36.978Z,1.67
2023-03-16T07:42:12.699Z,1.60
2023-03-16T07:44:59.324Z,1.67
2023-03-16T07:47:27.338Z,1.58
2023-03-16T07:50:01.182Z,1.60
2023-03-16T07:52:29.675Z,1.60
2023-03-16T07:54:58.671Z,1.67
2023-03-16T07:57:26.697Z,1.92
2023-03-16T07:59:54.860Z,1.70
2023-03-16T08:02:22.810Z,1.90
2023-03-16T08:04:51.559Z,1.43
2023-03-16T08:07:20.988Z,1.80
2023-03-16T08:09:54.230Z,1.80
2023-03-16T08:12:33.770Z,1.60
2023-03-16T08:15:02.240Z,1.48
2023-03-16T08:17:32.409Z,1.60
2023-03-16T08:20:02.280Z,1.67
2023-03-16T08:22:31.684Z,1.60
2023-03-16T08:24:59.618Z,1.70
2023-03-16T08:27:29.532Z,1.58
2023-03-16T08:30:04.804Z,1.83
2023-03-16T08:32:35.007Z,1.23
2023-03-16T08:35:03.949Z,1.60
2023-03-16T08:37:33.582Z,1.42
2023-03-16T08:40:01.831Z,1.73
2023-03-16T08:42:31.305Z,1.08
2023-03-16T08:45:12.351Z,1.30
2023-03-16T08:47:42.740Z,1.55
2023-03-16T08:50:14.046Z,1.45
2023-03-16T08:52:43.403Z,1.42
2023-03-16T08:57:39.791Z,1.20
2023-03-16T09:00:13.205Z,1.35
2023-03-16T09:02:41.782Z,1.40
2023-03-16T09:05:11.140Z,1.40
2023-03-16T09:10:13.353Z,1.48
2023-03-16T09:12:42.708Z,2.13
2023-03-16T09:17:41.667Z,1.08
2023-03-16T09:20:30.050Z,1.55
2023-03-16T09:22:58.994Z,1.60
2023-03-16T09:25:28.560Z,1.13
2023-03-16T09:27:56.630Z,1.67
2023-03-16T09:30:24.683Z,1.58
2023-03-16T09:32:52.722Z,1.30
2023-03-16T09:35:20.618Z,1.48
2023-03-16T09:38:05.167Z,1.85
2023-03-16T09:40:36.874Z,1.50
2023-03-16T09:43:25.517Z,1.25
2023-03-16T09:46:00.904Z,1.30
2023-03-16T09:48:32.791Z,1.33
2023-03-16T09:51:03.545Z,1.45
2023-03-16T09:53:33.427Z,1.60
2023-03-16T09:56:08.384Z,1.30
2023-03-16T09:58:36.832Z,1.52
2023-03-16T10:01:13.294Z,1.40
2023-03-16T10:04:07.849Z,1.60
2023-03-16T10:06:42.789Z,1.20
2023-03-16T10:09:22.792Z,1.55
2023-03-16T10:11:55.975Z,1.25
2023-03-16T10:14:28.708Z,1.42
2023-03-16T10:17:03.113Z,1.50
2023-03-16T10:19:37.650Z,1.30
2023-03-16T10:22:18.582Z,1.45
2023-03-16T10:24:57.665Z,1.23
2023-03-16T10:27:31.224Z,1.23
2023-03-16T10:30:01.257Z,1.40
2023-03-16T10:32:34.592Z,1.63
2023-03-16T10:35:07.092Z,1.05
2023-03-16T10:37:35.631Z,1.13
2023-03-16T10:40:09.137Z,1.40
2023-03-16T10:42:38.534Z,1.48
2023-03-16T10:45:07.606Z,1.27
2023-03-16T10:47:35.469Z,1.25
2023-03-16T10:50:14.323Z,1.27
2023-03-16T10:52:45.231Z,1.52
2023-03-16T10:55:18.096Z,1.23
2023-03-16T10:57:53.646Z,1.45
2023-03-16T11:00:23.789Z,1.20
2023-03-16T11:02:55.278Z,1.55
2023-03-16T11:05:31.090Z,0.95
2023-03-16T11:08:02.873Z,1.10
2023-03-16T11:10:36.180Z,0.90
2023-03-16T11:13:13.481Z,0.90
2023-03-16T11:15:48.727Z,1.10
2023-03-16T11:18:29.574Z,0.95
2023-03-16T11:20:59.154Z,1.20
2023-03-16T11:23:32.868Z,1.40
2023-03-16T11:26:05.774Z,1.35
2023-03-16T11:28:38.702Z,1.35
2023-03-16T11:31:24.399Z,1.10
2023-03-16T11:33:55.418Z,1.00
2023-03-16T11:36:37.632Z,1.27
2023-03-16T11:39:14.826Z,1.30
2023-03-16T11:41:53.925Z,1.05
2023-03-16T11:44:29.649Z,1.30
2023-03-16T11:47:06.130Z,1.50
2023-03-16T11:49:58.399Z,1.45
2023-03-16T11:52:41.078Z,1.38
2023-03-16T11:55:23.621Z,1.13
2023-03-16T11:58:02.778Z,1.02
2023-03-16T12:03:31.078Z,1.50
2023-03-16T12:06:10.838Z,1.30
2023-03-16T12:09:13.473Z,1.27
2023-03-16T12:11:50.434Z,1.33
2023-03-16T12:14:24.358Z,1.20
2023-03-16T12:16:59.865Z,1.30
2023-03-16T12:19:40.910Z,1.10
2023-03-16T12:22:18.494Z,1.45
2023-03-16T12:24:48.199Z,0.98
2023-03-16T12:27:18.616Z,1.10
2023-03-16T12:29:57.011Z,1.10
2023-03-16T12:32:37.503Z,1.10
2023-03-16T12:35:18.376Z,1.40
2023-03-16T12:37:58.416Z,0.90
2023-03-16T12:40:39.563Z,0.93
2023-03-16T12:43:33.610Z,1.42
2023-03-16T12:46:07.744Z,1.05
2023-03-16T12:48:41.640Z,0.93
2023-03-16T12:51:09.791Z,1.08
2023-03-16T12:53:44.478Z,0.82
2023-03-16T12:56:15.212Z,0.90
2023-03-16T12:58:48.681Z,0.88
2023-03-16T13:01:19.855Z,1.05
2023-03-16T13:03:51.771Z,1.15
2023-03-16T13:06:23.405Z,1.17
2023-03-16T13:08:56.752Z,1.10
2023-03-16T13:11:25.310Z,1.25
2023-03-16T13:14:06.280Z,1.40
2023-03-16T13:16:37.498Z,1.10
2023-03-16T13:19:28.675Z,1.08
2023-03-16T13:22:05.803Z,1.05
2023-03-16T13:24:39.960Z,1.25
2023-03-16T13:27:20.899Z,1.10
2023-03-16T13:29:55.459Z,1.13
2023-03-16T13:32:25.237Z,1.10
2023-03-16T13:34:58.446Z,0.98
2023-03-16T13:37:28.485Z,1.13
2023-03-16T13:39:58.463Z,1.20
2023-03-16T13:42:28.360Z,0.95
2023-03-16T13:44:57.959Z,1.13
2023-03-16T13:47:27.585Z,1.00
2023-03-16T13:49:59.318Z,0.75
2023-03-16T13:52:30.372Z,0.85
2023-03-16T13:54:59.516Z,0.88
2023-03-16T13:57:29.681Z,0.80
2023-03-16T14:00:05.826Z,0.93
2023-03-16T14:02:42.366Z,1.00
2023-03-16T14:05:18.647Z,0.85
2023-03-16T14:07:48.583Z,0.80
2023-03-16T14:10:17.023Z,1.10
2023-03-16T14:12:52.712Z,0.90
2023-03-16T14:15:22.107Z,1.10
2023-03-16T14:17:49.960Z,0.70
2023-03-16T14:20:25.482Z,0.82
2023-03-16T14:22:54.565Z,0.80
2023-03-16T14:25:26.923Z,1.10
2023-03-16T14:28:00.214Z,0.88
2023-03-16T14:30:30.860Z,1.00
2023-03-16T14:33:00.686Z,0.98
2023-03-16T14:35:32.304Z,0.90
2023-03-16T14:38:21.335Z,0.88
2023-03-16T14:40:54.572Z,1.10
2023-03-16T14:43:26.383Z,0.90
2023-03-16T14:45:55.989Z,1.23
2023-03-16T14:48:24.356Z,0.73
2023-03-16T14:50:56.222Z,0.90
2023-03-16T14:53:24.592Z,0.77
2023-03-16T14:55:52.522Z,1.10
2023-03-16T14:58:20.425Z,1.42
2023-03-16T15:00:53.183Z,1.13
2023-03-16T15:03:23.308Z,0.70
2023-03-16T15:05:54.645Z,0.90
2023-03-16T15:08:27.184Z,0.80
2023-03-16T15:10:58.935Z,1.00
2023-03-16T15:13:52.615Z,0.82
2023-03-16T15:16:22.044Z,0.80
2023-03-16T15:18:51.776Z,0.88
2023-03-16T15:21:25.208Z,1.00
2023-03-16T15:23:53.309Z,0.88
2023-03-16T15:26:27.178Z,0.70
2023-03-16T15:28:55.390Z,0.70
2023-03-16T15:31:23.513Z,0.98
2023-03-16T15:33:51.637Z,0.90
2023-03-16T15:36:22.563Z,1.00
2023-03-16T15:38:52.142Z,0.75
2023-03-16T15:41:20.483Z,0.80
2023-03-16T15:43:48.450Z,0.83
2023-03-16T15:46:16.596Z,0.77
2023-03-16T15:48:44.644Z,1.13
2023-03-16T15:51:21.211Z,0.70
2023-03-16T15:53:53.928Z,0.70
2023-03-16T15:56:29.886Z,0.95
2023-03-16T15:59:00.919Z,1.40
2023-03-16T16:01:31.984Z,1.23
2023-03-16T16:03:59.902Z,0.90
2023-03-16T16:06:28.551Z,1.00
2023-03-16T16:08:57.753Z,1.00
2023-03-16T16:11:27.316Z,1.20
2023-03-16T16:13:56.610Z,0.80
2023-03-16T16:16:26.997Z,0.98
2023-03-16T16:18:55.145Z,1.10
2023-03-16T16:21:26.695Z,1.00
2023-03-16T16:23:54.829Z,1.10
2023-03-16T16:26:46.962Z,0.80
2023-03-16T16:29:17.170Z,0.95
2023-03-16T16:31:45.240Z,0.82
2023-03-16T16:34:15.454Z,0.95
2023-03-16T16:36:43.400Z,0.90
2023-03-16T16:39:12.586Z,1.10
2023-03-16T16:41:43.344Z,0.63
2023-03-16T16:44:17.788Z,0.93
2023-03-16T16:46:45.769Z,0.90
2023-03-16T16:49:16.394Z,1.05
2023-03-16T16:51:44.308Z,1.10
2023-03-16T16:54:16.151Z,1.15
2023-03-16T16:56:46.230Z,1.00
2023-03-16T16:59:18.101Z,1.20
2023-03-16T17:01:47.361Z,1.20
2023-03-16T17:04:17.477Z,1.98
2023-03-16T17:06:46.107Z,1.10
2023-03-16T17:09:14.257Z,1.23
2023-03-16T17:11:43.698Z,1.15
2023-03-16T17:14:17.948Z,1.33
2023-03-16T17:16:47.613Z,1.40
2023-03-16T17:19:21.278Z,1.30
2023-03-16T17:21:49.866Z,1.10
2023-03-16T17:24:17.862Z,1.48
2023-03-16T17:26:48.235Z,1.02
2023-03-16T17:29:22.535Z,1.50
2023-03-16T17:31:51.418Z,1.40
2023-03-16T17:34:21.351Z,1.75
2023-03-16T17:36:49.478Z,1.50
2023-03-16T17:39:19.125Z,1.20
2023-03-16T17:41:47.609Z,1.50
2023-03-16T17:44:16.177Z,1.87
2023-03-16T17:46:46.324Z,2.15
2023-03-16T17:49:14.840Z,1.77
2023-03-16T17:51:44.041Z,1.70
2023-03-16T17:56:40.675Z,1.35
2023-03-16T17:59:15.406Z,1.30
2023-03-16T18:01:44.684Z,1.20
2023-03-16T18:06:48.098Z,1.42
2023-03-16T18:09:16.246Z,1.85
2023-03-16T18:11:47.542Z,1.13
2023-03-16T18:14:25.376Z,1.60
2023-03-16T18:16:54.569Z,1.70
2023-03-16T18:19:25.781Z,1.40
2023-03-16T18:21:54.650Z,1.45
2023-03-16T18:24:25.766Z,1.30
2023-03-16T18:26:53.699Z,1.25
2023-03-16T18:29:22.363Z,1.88
2023-03-16T18:31:51.845Z,1.40
2023-03-16T18:36:53.002Z,1.60
2023-03-16T18:39:22.951Z,1.30
2023-03-16T18:41:51.068Z,1.70
2023-03-16T18:44:20.317Z,1.50
2023-03-16T18:46:49.466Z,1.45
2023-03-16T18:49:22.825Z,1.48
2023-03-16T18:51:53.948Z,1.70
2023-03-16T18:54:23.495Z,1.30
2023-03-16T18:56:51.794Z,1.75
2023-03-16T18:59:19.742Z,1.70
2023-03-16T19:01:48.514Z,1.50
2023-03-16T19:04:22.463Z,1.75
2023-03-16T19:06:53.697Z,1.80
2023-03-16T19:09:23.617Z,1.55
2023-03-16T19:11:52.067Z,1.52
2023-03-16T19:14:22.528Z,1.70
2023-03-16T19:16:50.794Z,2.33
2023-03-16T19:19:21.308Z,1.80
2023-03-16T19:21:50.443Z,1.52
2023-03-16T19:24:25.667Z,1.58
2023-03-16T19:26:53.699Z,1.92
2023-03-16T19:29:24.813Z,1.42
2023-03-16T19:31:52.780Z,1.85
2023-03-16T19:34:20.747Z,2.05
2023-03-16T19:36:48.713Z,1.60
2023-03-16T19:39:18.276Z,1.40
2023-03-16T19:41:52.267Z,1.58
2023-03-16T19:44:22.286Z,1.35
2023-03-16T19:46:51.203Z,1.58
2023-03-16T19:49:21.757Z,1.23
2023-03-16T19:51:51.161Z,1.73
2023-03-16T19:56:53.509Z,1.77
2023-03-16T19:59:22.050Z,1.60
2023-03-16T20:01:49.963Z,1.60
2023-03-16T20:04:19.571Z,1.58
2023-03-16T20:06:49.765Z,1.40
2023-03-16T20:09:18.149Z,1.58
2023-03-16T20:11:46.665Z,1.27
2023-03-16T20:14:21.238Z,1.60
2023-03-16T20:16:49.404Z,1.58
2023-03-16T20:19:17.477Z,1.33
2023-03-16T20:21:45.467Z,1.38
2023-03-16T20:24:16.396Z,1.10
2023-03-16T20:26:45.035Z,1.50
2023-03-16T20:29:22.116Z,1.42
2023-03-16T20:31:50.034Z,1.30
2023-03-16T20:34:24.571Z,1.40
2023-03-16T20:36:52.515Z,1.30
2023-03-16T20:39:21.003Z,1.10
2023-03-16T20:41:49.237Z,1.40
2023-03-16T20:44:21.884Z,1.58
2023-03-16T20:46:50.155Z,1.40
2023-03-16T20:49:32.764Z,1.40
2023-03-16T20:52:00.690Z,1.30
2023-03-16T20:54:28.571Z,1.30
2023-03-16T20:56:56.601Z,1.10
2023-03-16T20:59:28.300Z,1.50
2023-03-16T21:01:56.351Z,1.60
2023-03-16T21:04:27.374Z,1.23
2023-03-16T21:06:56.819Z,1.20
2023-03-16T21:09:24.916Z,1.10
2023-03-16T21:11:53.002Z,1.27
2023-03-16T21:14:23.486Z,1.30
2023-03-16T21:16:54.865Z,1.10
2023-03-16T21:19:24.100Z,1.30
2023-03-16T21:21:52.470Z,1.00
2023-03-16T21:24:20.416Z,1.15
2023-03-16T21:26:48.444Z,1.42
2023-03-16T21:29:21.160Z,1.40
2023-03-16T21:31:49.490Z,1.20
2023-03-16T21:34:25.133Z,1.30
2023-03-16T21:36:53.274Z,1.45
2023-03-16T21:39:24.917Z,1.10
2023-03-16T21:41:53.551Z,1.20
2023-03-16T21:44:21.763Z,1.17
2023-03-16T21:46:49.869Z,0.98
2023-03-16T21:49:17.963Z,1.08
2023-03-16T21:51:47.700Z,0.93
2023-03-16T21:54:16.883Z,0.82
2023-03-16T21:56:45.108Z,1.10
2023-03-16T21:59:13.359Z,1.08
2023-03-16T22:01:58.374Z,1.20
2023-03-16T22:04:28.857Z,1.38
2023-03-16T22:06:58.221Z,1.17
2023-03-16T22:11:58.168Z,1.10
2023-03-16T22:14:27.158Z,1.20
2023-03-16T22:16:55.459Z,1.42
2023-03-16T22:19:23.403Z,1.20
2023-03-16T22:21:51.497Z,1.20
2023-03-16T22:24:23.636Z,1.38
2023-03-16T22:26:52.694Z,1.10
2023-03-16T22:29:23.893Z,1.55
2023-03-16T22:31:55.280Z,1.42
2023-03-16T22:34:29.402Z,1.08
2023-03-16T22:36:58.126Z,1.05
2023-03-16T22:39:27.896Z,1.30
2023-03-16T22:41:55.830Z,1.90
2023-03-16T22:44:24.909Z,1.30
2023-03-16T22:46:52.809Z,0.98
2023-03-16T22:49:23.287Z,1.13
2023-03-16T22:51:53.681Z,1.40
2023-03-16T22:54:24.737Z,1.35
2023-03-16T22:56:54.557Z,1.90
2023-03-16T22:59:25.678Z,1.30
2023-03-16T23:01:53.652Z,1.25
2023-03-16T23:04:24.551Z,1.20
2023-03-16T23:06:54.292Z,1.00
2023-03-16T23:09:23.331Z,1.00
2023-03-16T23:11:54.527Z,1.10
2023-03-16T23:14:24.433Z,1.52
2023-03-16T23:16:53.059Z,1.02
2023-03-16T23:19:26.046Z,1.10
2023-03-16T23:21:55.838Z,1.23
2023-03-16T23:24:24.243Z,0.98
2023-03-16T23:26:54.110Z,1.10
2023-03-16T23:29:22.780Z,1.10
2023-03-16T23:31:51.426Z,1.40
2023-03-16T23:34:21.328Z,1.10
2023-03-16T23:36:49.717Z,1.20
2023-03-16T23:39:17.619Z,1.30
2023-03-16T23:41:49.310Z,1.20
2023-03-16T23:44:21.824Z,1.52
2023-03-16T23:46:49.744Z,1.40
2023-03-16T23:49:21.574Z,1.73
2023-03-16T23:51:49.783Z,1.63
2023-03-16T23:54:20.046Z,1.48
2023-03-16T23:56:48.194Z,1.48
2023-03-16T23:59:16.408Z,1.30
